Time;durP1;ratioP1;P1;durP2;ratioP2;P2;SDS_P1;SDS_P2;PMS_P1;PMS_P2;Temp;Humidity;BMP_temperature;BMP_pressure;BME280_temperature;BME280_humidity;BME280_pressure;Samples;Min_cycle;Max_cycle;Signal;HPM_P1;HPM_P2
2022/05/24 00:01:35;;;;;;;13.53;5.10;;;21.10;74.10;;;;;;5082960;28;20336;-80
2022/05/24 00:04:02;;;;;;;10.03;4.53;;;21.00;73.80;;;;;;5062024;28;20207;-81
2022/05/24 00:06:32;;;;;;;9.37;5.43;;;21.00;73.90;;;;;;5076361;28;20196;-81
2022/05/24 00:09:00;;;;;;;7.17;5.10;;;20.90;73.80;;;;;;5100278;28;20196;-81
2022/05/24 00:11:32;;;;;;;6.43;4.70;;;20.90;73.80;;;;;;5099959;28;20230;-81
2022/05/24 00:13:59;;;;;;;11.27;4.53;;;20.90;74.00;;;;;;5086562;28;20200;-81
2022/05/24 00:16:27;;;;;;;12.27;5.43;;;20.90;74.20;;;;;;5078037;28;20530;-81
2022/05/24 00:18:55;;;;;;;8.17;4.60;;;20.90;74.40;;;;;;5078342;28;20235;-82
2022/05/24 00:21:23;;;;;;;8.20;5.33;;;20.90;74.70;;;;;;5078035;28;20236;-82
2022/05/24 00:23:51;;;;;;;6.30;5.03;;;20.90;74.70;;;;;;5078354;28;20211;-82
2022/05/24 00:26:31;;;;;;;7.27;5.40;;;20.90;74.90;;;;;;5061797;28;20630;-81
2022/05/24 00:28:59;;;;;;;11.10;6.13;;;20.90;75.20;;;;;;5079074;28;20217;-82
2022/05/24 00:31:27;;;;;;;10.33;6.43;;;20.90;75.40;;;;;;5086583;28;20200;-82
2022/05/24 00:33:54;;;;;;;13.47;5.70;;;20.80;75.80;;;;;;5076059;28;20199;-80
2022/05/24 00:36:25;;;;;;;8.53;6.10;;;20.80;76.10;;;;;;5070149;28;20204;-81
2022/05/24 00:38:56;;;;;;;6.23;5.63;;;20.80;76.30;;;;;;5085553;28;20588;-81
2022/05/24 00:41:37;;;;;;;7.10;5.67;;;20.90;76.50;;;;;;5087620;28;20554;-81
2022/05/24 00:44:12;;;;;;;16.90;6.03;;;20.80;76.60;;;;;;5079973;28;20295;-81
2022/05/24 00:47:13;;;;;;;8.10;5.93;;;20.80;76.80;;;;;;5089470;28;20204;-81
2022/05/24 00:50:11;;;;;;;8.67;6.60;;;20.80;77.30;;;;;;5061024;28;20211;-81
2022/05/24 00:52:47;;;;;;;9.27;6.37;;;20.80;77.30;;;;;;5073289;28;20221;-81
2022/05/24 00:55:21;;;;;;;15.63;6.87;;;20.70;77.20;;;;;;5084428;28;20625;-81
2022/05/24 00:58:05;;;;;;;20.97;6.13;;;20.70;76.90;;;;;;5073266;28;20554;-81
2022/05/24 01:00:37;;;;;;;9.77;6.47;;;20.70;76.40;;;;;;5097322;28;20211;-81
2022/05/24 01:03:06;;;;;;;10.60;5.73;;;20.60;76.30;;;;;;5098639;28;20230;-80
2022/05/24 01:05:33;;;;;;;11.87;6.40;;;20.60;76.50;;;;;;5090184;28;20291;-81
2022/05/24 01:08:01;;;;;;;12.20;7.27;;;20.50;77.00;;;;;;5093835;28;20291;-80
2022/05/24 01:10:43;;;;;;;9.67;6.03;;;20.50;77.70;;;;;;5080326;28;20204;-81
2022/05/24 01:13:21;;;;;;;9.57;6.53;;;20.40;78.30;;;;;;5058615;28;20201;-81
2022/05/24 01:15:51;;;;;;;18.57;7.50;;;20.40;78.30;;;;;;5078317;28;20624;-80
2022/05/24 01:18:21;;;;;;;17.33;6.67;;;20.30;78.20;;;;;;5088898;28;20231;-81
2022/05/24 01:21:04;;;;;;;9.63;6.27;;;20.30;78.00;;;;;;5088594;28;20292;-81
2022/05/24 01:23:46;;;;;;;12.90;6.77;;;20.30;78.20;;;;;;5085279;28;20210;-81
2022/05/24 01:26:46;;;;;;;12.63;6.10;;;20.30;78.20;;;;;;5092230;28;20548;-81
2022/05/24 01:29:14;;;;;;;10.03;7.17;;;20.20;78.20;;;;;;5069849;28;20268;-81
2022/05/24 01:37:16;;;;;;;18.47;7.60;;;20.00;79.60;;;;;;5084775;28;20212;-82
2022/05/24 01:39:51;;;;;;;21.03;9.10;;;19.90;79.90;;;;;;5098857;28;20276;-81
2022/05/24 01:42:21;;;;;;;22.17;7.97;;;19.80;79.80;;;;;;5098494;28;20230;-80
2022/05/24 01:45:05;;;;;;;18.40;7.87;;;19.80;80.20;;;;;;5070147;28;20212;-81
2022/05/24 01:47:35;;;;;;;13.93;8.00;;;19.70;81.20;;;;;;5103760;28;20272;-80
2022/05/24 01:50:09;;;;;;;12.00;8.50;;;19.60;81.80;;;;;;5099747;28;20203;-81
2022/05/24 01:52:47;;;;;;;19.83;8.60;;;19.70;82.10;;;;;;5075931;28;20214;-81
2022/05/24 01:55:47;;;;;;;17.40;7.83;;;19.70;82.20;;;;;;5104417;28;20270;-81
2022/05/24 01:58:18;;;;;;;10.87;8.00;;;19.60;81.90;;;;;;5104003;28;20237;-80
2022/05/24 02:01:01;;;;;;;11.93;8.33;;;19.60;82.10;;;;;;5048828;28;20223;-81
2022/05/24 02:03:37;;;;;;;11.33;7.60;;;19.70;82.90;;;;;;5092849;28;20201;-81
2022/05/24 02:06:25;;;;;;;12.57;7.93;;;19.60;82.90;;;;;;5096068;28;20311;-81
2022/05/24 02:08:54;;;;;;;10.07;8.67;;;19.70;83.30;;;;;;5083044;28;20201;-81
2022/05/24 02:11:26;;;;;;;15.67;8.00;;;19.70;83.50;;;;;;5099621;28;20313;-81
2022/05/24 02:14:08;;;;;;;10.80;7.77;;;19.70;83.40;;;;;;5086104;28;20235;-81
2022/05/24 02:16:43;;;;;;;10.87;7.93;;;19.70;83.10;;;;;;5083821;28;20245;-81
2022/05/24 02:19:14;;;;;;;12.40;7.70;;;19.80;83.00;;;;;;5085339;28;20240;-81
2022/05/24 02:21:52;;;;;;;12.87;8.73;;;19.80;82.90;;;;;;5103780;28;20208;-80
2022/05/24 02:24:24;;;;;;;13.10;8.83;;;19.80;82.90;;;;;;5104522;28;20277;-80
2022/05/24 02:26:58;;;;;;;17.57;8.90;;;19.80;83.30;;;;;;5086669;28;20231;-81
2022/05/24 02:29:26;;;;;;;15.87;9.23;;;19.80;83.60;;;;;;5101522;28;20211;-81
2022/05/24 02:31:58;;;;;;;18.37;10.07;;;19.80;83.50;;;;;;5084744;28;20234;-81
2022/05/24 02:34:29;;;;;;;10.13;8.37;;;19.80;83.70;;;;;;5101376;28;20278;-81
2022/05/24 02:36:56;;;;;;;13.47;9.53;;;19.90;83.80;;;;;;5084673;28;20306;-80
2022/05/24 02:39:24;;;;;;;10.53;9.40;;;19.90;83.90;;;;;;5101363;28;20199;-81
2022/05/24 02:41:52;;;;;;;12.73;9.50;;;19.90;84.30;;;;;;5100856;28;20246;-80
2022/05/24 02:44:23;;;;;;;13.20;10.23;;;19.90;84.80;;;;;;5069749;28;20204;-80
2022/05/24 02:46:50;;;;;;;11.27;8.93;;;19.90;84.80;;;;;;5101712;28;20203;-80
2022/05/24 02:49:18;;;;;;;16.63;8.67;;;19.90;84.70;;;;;;5076677;28;20206;-80
2022/05/24 02:51:47;;;;;;;16.33;9.70;;;19.80;84.50;;;;;;5080591;28;20219;-80
2022/05/24 02:54:14;;;;;;;15.57;9.60;;;19.80;84.40;;;;;;5096726;28;20286;-80
2022/05/24 02:56:44;;;;;;;16.27;9.23;;;19.80;85.40;;;;;;5101598;28;20203;-81
2022/05/24 02:59:16;;;;;;;16.13;8.83;;;19.80;84.90;;;;;;5098150;28;20326;-81
2022/05/24 03:01:44;;;;;;;12.53;8.30;;;19.80;84.50;;;;;;5096651;28;20635;-80
2022/05/24 03:04:14;;;;;;;15.43;8.90;;;19.70;84.10;;;;;;5063900;28;20210;-80
2022/05/24 03:09:36;;;;;;;17.40;8.40;;;19.70;83.40;;;;;;5079849;28;20200;-81
2022/05/24 03:14:54;;;;;;;14.90;7.97;;;19.60;83.50;;;;;;5086265;28;20207;-80
2022/05/24 03:17:24;;;;;;;17.47;8.27;;;19.50;83.40;;;;;;5082936;28;20248;-80
2022/05/24 03:19:52;;;;;;;20.67;9.77;;;19.50;83.50;;;;;;5079835;28;20625;-81
2022/05/24 03:22:23;;;;;;;12.37;8.90;;;19.50;83.70;;;;;;5062700;28;20224;-80
2022/05/24 03:24:50;;;;;;;14.93;8.27;;;19.50;83.80;;;;;;5063155;28;20206;-80
2022/05/24 03:27:18;;;;;;;12.47;8.50;;;19.40;83.60;;;;;;5079782;28;20194;-80
2022/05/24 03:29:47;;;;;;;18.80;8.97;;;19.40;83.60;;;;;;5079637;28;20222;-80
2022/05/24 03:32:18;;;;;;;16.00;9.57;;;19.40;83.90;;;;;;5063449;28;20228;-81
2022/05/24 03:34:46;;;;;;;11.50;8.53;;;19.40;84.30;;;;;;5064049;28;20204;-80
2022/05/24 03:37:17;;;;;;;15.33;10.10;;;19.40;84.50;;;;;;5063826;28;20204;-80
2022/05/24 03:39:48;;;;;;;14.80;10.13;;;19.40;84.60;;;;;;5063572;28;20213;-80
2022/05/24 03:42:21;;;;;;;16.67;9.93;;;19.40;84.70;;;;;;5079772;28;20213;-80
2022/05/24 03:44:51;;;;;;;16.00;10.33;;;19.40;85.00;;;;;;5080784;28;20198;-81
2022/05/24 03:47:22;;;;;;;19.03;11.10;;;19.40;85.30;;;;;;5080547;28;20202;-81
2022/05/24 03:49:53;;;;;;;14.07;10.80;;;19.40;85.50;;;;;;5092441;28;20669;-80
2022/05/24 03:52:21;;;;;;;14.33;10.23;;;19.40;85.80;;;;;;5083646;28;20238;-81
2022/05/24 03:54:54;;;;;;;14.10;9.20;;;19.40;85.90;;;;;;5102352;28;20239;-81
2022/05/24 04:00:10;;;;;;;17.17;9.67;;;19.50;85.90;;;;;;5102049;28;20216;-81
2022/05/24 04:02:39;;;;;;;19.03;9.60;;;19.50;85.70;;;;;;5101552;28;20545;-81
2022/05/24 04:05:11;;;;;;;13.73;10.53;;;19.50;85.70;;;;;;5083910;28;20202;-80
2022/05/24 04:07:47;;;;;;;20.40;10.13;;;19.50;85.60;;;;;;5102274;28;20188;-82
2022/05/24 04:10:17;;;;;;;19.43;10.37;;;19.50;85.50;;;;;;5101052;28;20186;-81
2022/05/24 04:12:45;;;;;;;21.70;10.37;;;19.50;85.60;;;;;;5100614;28;20202;-81
2022/05/24 04:15:14;;;;;;;28.33;10.77;;;19.60;85.90;;;;;;5101945;28;20192;-81
2022/05/24 04:17:47;;;;;;;17.93;10.80;;;19.70;86.00;;;;;;5101656;28;20206;-80
2022/05/24 04:20:15;;;;;;;22.10;10.77;;;19.80;86.10;;;;;;5101152;28;20301;-81
2022/05/24 04:22:56;;;;;;;23.33;12.53;;;19.80;86.10;;;;;;5100677;28;20268;-80
2022/05/24 04:25:27;;;;;;;17.30;12.20;;;19.90;86.10;;;;;;5072352;28;20205;-80
2022/05/24 04:27:57;;;;;;;20.13;11.77;;;20.00;86.10;;;;;;5081023;28;20201;-82
2022/05/24 04:30:28;;;;;;;22.20;12.13;;;20.10;86.10;;;;;;5081437;28;20686;-81
2022/05/24 04:32:57;;;;;;;22.90;11.47;;;20.10;86.20;;;;;;5081693;28;20221;-80
2022/05/24 04:35:29;;;;;;;28.47;13.37;;;20.30;86.20;;;;;;5066192;28;20205;-81
2022/05/24 04:38:00;;;;;;;20.60;12.00;;;20.40;86.10;;;;;;5080727;28;20244;-81
2022/05/24 04:43:24;;;;;;;27.53;12.37;;;20.50;86.20;;;;;;5101674;28;20253;-80
2022/05/24 04:45:57;;;;;;;22.53;12.57;;;20.60;86.30;;;;;;5101684;28;20250;-81
2022/05/24 04:48:28;;;;;;;23.43;12.60;;;20.70;86.30;;;;;;5100292;28;20183;-80
2022/05/24 04:51:14;;;;;;;17.90;12.40;;;20.70;86.40;;;;;;5101443;28;20705;-81
2022/05/24 04:53:55;;;;;;;17.90;13.50;;;20.80;86.50;;;;;;5084045;28;20233;-82
2022/05/24 04:56:24;;;;;;;24.83;14.77;;;20.90;86.50;;;;;;5064534;28;20222;-80
2022/05/24 04:58:57;;;;;;;29.93;14.90;;;21.00;86.50;;;;;;5080868;28;20280;-81
2022/05/24 05:01:51;;;;;;;32.90;15.07;;;21.20;86.60;;;;;;5081041;28;20208;-81
2022/05/24 05:04:25;;;;;;;33.43;15.70;;;21.30;86.90;;;;;;5081246;28;20216;-81
2022/05/24 05:07:21;;;;;;;30.87;16.77;;;21.40;86.80;;;;;;5059093;28;20548;-81
2022/05/24 05:09:58;;;;;;;45.33;19.50;;;21.60;86.80;;;;;;5080990;28;20186;-80
2022/05/24 05:12:31;;;;;;;33.73;17.67;;;21.70;86.50;;;;;;5098366;28;20216;-81
2022/05/24 05:15:10;;;;;;;49.30;20.47;;;21.90;86.40;;;;;;5100679;28;20257;-81
2022/05/24 05:17:51;;;;;;;36.50;19.30;;;22.00;86.30;;;;;;5100605;28;20272;-81
2022/05/24 05:20:59;;;;;;;41.90;20.53;;;22.10;86.30;;;;;;5101978;28;20196;-81
2022/05/24 05:23:32;;;;;;;37.30;21.70;;;22.30;86.60;;;;;;5083789;28;20228;-80
2022/05/24 05:26:01;;;;;;;30.23;22.27;;;22.50;86.70;;;;;;5096909;28;20280;-80
2022/05/24 05:28:34;;;;;;;37.17;22.87;;;22.60;86.80;;;;;;5096919;28;20197;-80
2022/05/24 05:31:19;;;;;;;31.93;21.87;;;22.80;86.80;;;;;;5094268;28;20201;-80
2022/05/24 05:33:55;;;;;;;31.77;21.97;;;22.90;86.80;;;;;;5101789;28;20208;-81
2022/05/24 05:36:31;;;;;;;36.00;21.70;;;23.00;87.10;;;;;;5101093;28;20628;-81
2022/05/24 05:39:03;;;;;;;38.83;20.53;;;23.10;86.80;;;;;;5069595;28;20215;-81
2022/05/24 05:41:35;;;;;;;32.73;20.53;;;23.30;86.50;;;;;;5101542;28;20205;-81
2022/05/24 05:44:36;;;;;;;32.67;20.23;;;23.40;86.10;;;;;;5101491;28;20205;-81
2022/05/24 05:47:09;;;;;;;27.90;20.37;;;23.60;85.60;;;;;;5100570;28;20193;-81
2022/05/24 05:49:41;;;;;;;33.03;20.30;;;23.60;85.30;;;;;;5094488;28;20205;-82
2022/05/24 05:52:11;;;;;;;26.33;19.63;;;23.70;84.90;;;;;;5089133;28;20205;-81
2022/05/24 05:54:39;;;;;;;30.33;19.93;;;23.70;84.70;;;;;;5084811;28;20337;-82
2022/05/24 05:57:11;;;;;;;33.17;20.23;;;23.70;84.70;;;;;;5088707;28;20210;-82
2022/05/24 05:59:39;;;;;;;32.40;19.43;;;23.70;84.80;;;;;;5093314;28;20271;-81
2022/05/24 06:02:08;;;;;;;31.80;20.27;;;23.70;84.90;;;;;;5076564;28;20239;-81
2022/05/24 06:04:36;;;;;;;30.43;20.47;;;23.60;85.00;;;;;;5076513;28;20208;-81
2022/05/24 06:07:04;;;;;;;31.30;21.37;;;23.70;85.10;;;;;;5093355;28;20206;-81
2022/05/24 06:09:32;;;;;;;33.93;20.87;;;23.70;85.40;;;;;;5068533;28;20201;-81
2022/05/24 06:11:59;;;;;;;37.60;20.73;;;23.70;85.50;;;;;;5088202;28;20201;-81
2022/05/24 06:14:27;;;;;;;37.97;22.30;;;23.80;85.50;;;;;;5091427;28;20816;-81
2022/05/24 06:17:18;;;;;;;27.77;23.47;;;23.80;85.60;;;;;;5083743;28;20551;-81
2022/05/24 06:19:46;;;;;;;32.13;23.50;;;23.90;85.60;;;;;;5087137;28;20212;-79
2022/05/24 06:22:14;;;;;;;31.93;23.37;;;23.90;85.20;;;;;;5080073;28;20221;-81
2022/05/24 06:24:43;;;;;;;33.27;25.00;;;24.00;85.10;;;;;;5087759;28;20297;-81
2022/05/24 06:27:10;;;;;;;33.07;24.13;;;24.00;85.00;;;;;;5099313;28;20212;-80
2022/05/24 06:29:38;;;;;;;31.17;24.60;;;24.00;85.00;;;;;;5091362;28;20204;-81
2022/05/24 06:32:05;;;;;;;31.73;26.23;;;24.00;84.80;;;;;;5088472;28;20197;-80
2022/05/24 06:34:33;;;;;;;33.00;26.23;;;24.00;84.50;;;;;;5091638;28;20205;-80
2022/05/24 06:37:00;;;;;;;28.77;24.97;;;24.10;84.50;;;;;;5086166;28;20203;-81
2022/05/24 06:39:28;;;;;;;30.97;25.03;;;24.10;84.70;;;;;;5087507;28;20198;-81
2022/05/24 06:42:00;;;;;;;33.63;24.80;;;24.10;84.80;;;;;;5078458;28;20612;-80
2022/05/24 06:44:33;;;;;;;26.73;23.80;;;24.10;84.50;;;;;;5093778;28;20217;-81
2022/05/24 06:47:01;;;;;;;36.77;24.30;;;24.10;84.40;;;;;;5085555;28;20204;-81
2022/05/24 06:49:28;;;;;;;31.87;25.20;;;24.10;84.50;;;;;;5088185;28;20220;-80
2022/05/24 06:51:55;;;;;;;27.07;24.10;;;24.20;84.50;;;;;;5074513;28;20210;-82
2022/05/24 06:54:23;;;;;;;30.20;24.27;;;24.30;84.40;;;;;;5085391;28;20237;-81
2022/05/24 06:56:52;;;;;;;29.63;23.77;;;24.50;84.00;;;;;;5085002;28;20209;-81
2022/05/24 07:05:01;;;;;;;29.47;23.60;;;24.90;82.60;;;;;;5087082;28;20222;-81
2022/05/24 07:07:32;;;;;;;32.13;21.93;;;25.10;82.20;;;;;;5088538;28;20637;-81
2022/05/24 07:10:00;;;;;;;25.23;22.07;;;25.30;81.80;;;;;;5095262;28;20288;-81
2022/05/24 07:12:28;;;;;;;25.67;22.27;;;25.40;81.20;;;;;;5083000;28;20275;-81
2022/05/24 07:14:58;;;;;;;29.60;22.07;;;25.50;80.60;;;;;;5080863;28;20612;-81
2022/05/24 07:17:28;;;;;;;23.70;20.87;;;25.60;80.20;;;;;;5091333;28;20210;-81
2022/05/24 07:20:00;;;;;;;24.43;21.97;;;25.70;79.80;;;;;;5078882;28;20214;-81
2022/05/24 07:22:27;;;;;;;25.40;23.00;;;25.70;79.20;;;;;;5088108;28;20364;-81
2022/05/24 07:24:55;;;;;;;26.00;23.43;;;25.70;78.30;;;;;;5082047;28;20320;-81
2022/05/24 07:27:24;;;;;;;24.53;21.93;;;25.70;78.50;;;;;;5084352;28;20199;-81
2022/05/24 07:29:52;;;;;;;24.53;22.17;;;25.80;78.80;;;;;;5085940;28;20231;-81
2022/05/24 07:32:19;;;;;;;24.87;22.23;;;25.90;79.20;;;;;;5062517;28;20206;-81
2022/05/24 07:34:47;;;;;;;22.77;20.27;;;26.00;77.40;;;;;;5085362;28;20202;-81
2022/05/24 07:37:17;;;;;;;26.97;20.23;;;26.30;77.60;;;;;;5083218;28;20209;-81
2022/05/24 07:39:45;;;;;;;27.57;22.60;;;26.60;77.30;;;;;;5082944;28;20714;-81
2022/05/24 07:47:49;;;;;;;24.50;21.70;;;27.50;74.30;;;;;;5094279;28;20198;-82
2022/05/24 07:50:19;;;;;;;25.67;19.83;;;27.50;73.30;;;;;;5084097;28;20185;-82
2022/05/24 07:52:49;;;;;;;19.83;16.77;;;27.50;72.90;;;;;;5089451;28;20229;-81
2022/05/24 07:55:17;;;;;;;22.60;19.20;;;27.50;72.60;;;;;;5068766;28;20249;-82
2022/05/24 07:57:45;;;;;;;25.93;19.63;;;27.40;71.90;;;;;;5088398;28;20209;-82
2022/05/24 08:00:15;;;;;;;21.67;19.20;;;27.30;72.30;;;;;;5085071;28;20207;-82
2022/05/24 08:02:42;;;;;;;22.30;18.97;;;27.20;72.60;;;;;;5081704;28;20202;-81
2022/05/24 08:05:10;;;;;;;22.43;17.63;;;27.40;73.10;;;;;;5079311;28;20282;-82
2022/05/24 08:07:38;;;;;;;18.60;16.40;;;27.60;72.50;;;;;;5088981;28;20270;-82
2022/05/24 08:10:06;;;;;;;21.37;18.17;;;27.70;71.60;;;;;;5098292;28;20193;-82
2022/05/24 08:12:42;;;;;;;24.50;16.43;;;27.80;71.10;;;;;;5089306;28;20212;-83
2022/05/24 08:15:10;;;;;;;26.00;17.27;;;28.00;71.30;;;;;;5057470;28;20197;-82
2022/05/24 08:17:37;;;;;;;22.60;16.83;;;28.20;70.80;;;;;;5085258;28;20263;-81
2022/05/24 08:20:09;;;;;;;23.33;18.77;;;28.50;70.30;;;;;;5065532;28;20208;-82
2022/05/24 08:22:38;;;;;;;26.80;17.97;;;28.60;69.00;;;;;;5090986;28;20231;-82
2022/05/24 08:25:07;;;;;;;19.63;14.87;;;28.70;69.40;;;;;;5107617;28;20248;-83
2022/05/24 08:27:37;;;;;;;19.13;15.17;;;28.90;68.10;;;;;;5074916;28;20857;-80
2022/05/24 08:30:10;;;;;;;25.70;17.83;;;29.00;66.80;;;;;;5087688;28;20221;-81
2022/05/24 08:32:39;;;;;;;21.40;15.90;;;29.10;67.00;;;;;;5087178;28;20201;-82
2022/05/24 08:35:10;;;;;;;19.27;13.63;;;29.20;67.00;;;;;;5064504;28;20304;-82
2022/05/24 08:37:39;;;;;;;14.73;13.10;;;29.20;67.70;;;;;;5090846;28;20262;-82
2022/05/24 08:40:08;;;;;;;16.00;13.17;;;29.30;66.60;;;;;;5084950;28;20224;-82
2022/05/24 08:43:13;;;;;;;13.93;12.43;;;29.40;66.00;;;;;;5085572;28;20208;-83
2022/05/24 08:49:04;;;;;;;14.77;12.73;;;29.60;64.40;;;;;;5091111;28;20220;-82
2022/05/24 08:51:54;;;;;;;21.73;13.27;;;29.70;64.20;;;;;;5066869;28;20221;-81
2022/05/24 08:54:48;;;;;;;19.17;13.87;;;29.70;64.20;;;;;;5086673;28;20679;-82
2022/05/24 08:57:25;;;;;;;20.17;13.47;;;29.80;63.60;;;;;;5060875;28;20234;-82
2022/05/24 09:00:10;;;;;;;20.90;11.80;;;29.90;63.50;;;;;;5078649;28;20204;-83
2022/05/24 09:02:51;;;;;;;17.07;12.07;;;30.10;63.00;;;;;;5075926;28;20221;-82
2022/05/24 09:05:24;;;;;;;17.17;14.07;;;30.20;62.30;;;;;;5060145;28;20290;-82
2022/05/24 09:08:10;;;;;;;20.20;13.40;;;30.30;61.00;;;;;;5053806;28;20206;-82
2022/05/24 09:11:04;;;;;;;16.67;12.53;;;30.20;61.30;;;;;;5077600;28;20210;-82
2022/05/24 09:13:37;;;;;;;23.13;11.07;;;30.10;62.20;;;;;;5062280;28;20240;-82
2022/05/24 09:16:12;;;;;;;15.57;11.43;;;29.90;62.10;;;;;;5060665;28;20217;-82
2022/05/24 09:18:48;;;;;;;15.80;9.80;;;29.90;61.70;;;;;;5078029;28;20660;-81
2022/05/24 09:21:22;;;;;;;15.70;11.47;;;30.00;61.50;;;;;;5094590;28;20224;-82
2022/05/24 09:24:07;;;;;;;16.53;11.23;;;30.20;60.30;;;;;;5077940;28;20627;-82
2022/05/24 09:27:03;;;;;;;14.20;9.60;;;30.20;60.40;;;;;;5061380;28;20210;-81
2022/05/24 09:29:35;;;;;;;11.17;8.63;;;30.30;61.00;;;;;;5077844;28;20208;-81
2022/05/24 09:32:08;;;;;;;15.63;8.97;;;30.40;60.30;;;;;;5072299;28;20206;-82
2022/05/24 09:34:38;;;;;;;15.27;8.83;;;30.60;58.90;;;;;;5075985;28;20620;-81
2022/05/24 09:37:15;;;;;;;20.20;9.87;;;30.60;58.60;;;;;;5070427;28;20213;-82
2022/05/24 09:39:58;;;;;;;9.17;7.53;;;30.70;57.60;;;;;;5076308;28;20213;-82
2022/05/24 09:42:36;;;;;;;11.33;9.00;;;30.80;58.10;;;;;;5070294;28;20221;-82
2022/05/24 09:45:15;;;;;;;12.17;7.50;;;30.90;58.50;;;;;;5077262;28;20236;-82
2022/05/24 09:47:45;;;;;;;12.70;7.87;;;31.00;58.30;;;;;;5077175;28;20209;-81
2022/05/24 09:50:21;;;;;;;21.03;7.73;;;31.10;58.50;;;;;;5073799;28;20193;-80
2022/05/24 09:53:36;;;;;;;13.77;7.50;;;31.20;57.90;;;;;;5076747;28;20312;-81
2022/05/24 09:56:25;;;;;;;16.10;7.70;;;31.40;57.40;;;;;;5062332;28;20218;-81
2022/05/24 09:58:57;;;;;;;16.00;8.27;;;31.60;57.30;;;;;;5057401;28;20285;-82
2022/05/24 10:01:37;;;;;;;17.00;7.20;;;31.80;56.30;;;;;;5079019;28;20259;-83
2022/05/24 10:04:16;;;;;;;11.90;6.63;;;32.00;55.30;;;;;;5062769;28;20229;-82
2022/05/24 10:06:53;;;;;;;12.43;7.40;;;32.10;54.50;;;;;;5080146;28;20228;-83
2022/05/24 10:09:21;;;;;;;15.30;6.80;;;32.20;55.10;;;;;;5080523;28;20209;-83
2022/05/24 10:11:48;;;;;;;18.13;7.00;;;32.40;54.10;;;;;;5080766;28;20209;-82
2022/05/24 10:14:40;;;;;;;13.97;7.17;;;32.50;53.40;;;;;;5078228;28;20288;-83
2022/05/24 10:17:14;;;;;;;9.63;6.90;;;32.60;53.00;;;;;;5063210;28;20241;-82
2022/05/24 10:20:16;;;;;;;13.73;6.77;;;32.60;52.10;;;;;;5096457;28;20244;-82
2022/05/24 10:23:16;;;;;;;12.20;6.23;;;32.70;52.00;;;;;;5076134;28;20221;-83
2022/05/24 10:26:02;;;;;;;12.50;6.87;;;32.60;51.80;;;;;;5067968;28;20198;-83
2022/05/24 10:28:38;;;;;;;15.10;6.30;;;32.70;52.80;;;;;;5062681;28;20213;-82
2022/05/24 10:31:10;;;;;;;11.67;6.70;;;32.70;51.70;;;;;;5078721;28;20210;-82
2022/05/24 10:39:45;;;;;;;9.87;6.20;;;32.10;50.50;;;;;;5079879;28;20268;-83
2022/05/24 10:42:57;;;;;;;8.87;5.47;;;31.80;52.10;;;;;;5062499;28;20216;-83
2022/05/24 10:45:51;;;;;;;10.20;5.70;;;31.70;52.00;;;;;;5058434;28;20252;-82
2022/05/24 10:48:29;;;;;;;9.47;5.53;;;31.70;53.80;;;;;;5079760;28;20202;-82
2022/05/24 10:51:08;;;;;;;9.70;5.67;;;31.80;52.50;;;;;;5081340;28;20269;-82
2022/05/24 10:53:53;;;;;;;7.73;5.30;;;31.70;50.20;;;;;;5048686;28;20663;-82
2022/05/24 10:56:48;;;;;;;7.20;4.70;;;31.40;50.60;;;;;;5063510;28;20206;-82
2022/05/24 10:59:27;;;;;;;6.57;4.40;;;31.20;52.30;;;;;;5061098;28;20203;-82
2022/05/24 11:02:00;;;;;;;6.27;4.00;;;31.30;50.70;;;;;;5077986;28;20256;-83
2022/05/24 11:04:47;;;;;;;15.10;4.67;;;31.50;50.40;;;;;;5079020;28;20280;-82
2022/05/24 11:07:18;;;;;;;10.60;4.63;;;31.80;48.90;;;;;;5079192;28;20276;-82
2022/05/24 11:10:18;;;;;;;7.77;4.43;;;32.20;49.00;;;;;;5045831;28;20664;-81
2022/05/24 11:12:52;;;;;;;8.67;5.27;;;32.30;48.50;;;;;;5061590;28;20194;-83
2022/05/24 11:15:33;;;;;;;9.47;5.47;;;32.20;49.00;;;;;;5064160;28;20213;-82
2022/05/24 11:18:17;;;;;;;11.53;4.77;;;31.90;50.00;;;;;;5060470;28;20233;-82
2022/05/24 11:21:17;;;;;;;9.33;5.23;;;31.80;49.90;;;;;;5079632;28;20209;-83
2022/05/24 11:23:57;;;;;;;12.50;4.70;;;31.90;49.70;;;;;;5071254;28;20214;-84
2022/05/24 11:26:30;;;;;;;8.07;4.93;;;32.20;50.00;;;;;;5064617;28;20519;-82
2022/05/24 11:29:15;;;;;;;11.13;4.87;;;32.50;49.30;;;;;;5064605;28;20247;-82
2022/05/24 11:32:07;;;;;;;12.23;5.03;;;32.70;49.10;;;;;;5079978;28;20190;-82
2022/05/24 11:35:10;;;;;;;10.30;4.80;;;32.60;48.60;;;;;;5081728;28;20213;-82
2022/05/24 11:37:42;;;;;;;11.63;5.07;;;32.40;49.50;;;;;;5062976;28;20212;-82
2022/05/24 11:40:30;;;;;;;10.37;4.60;;;32.10;49.70;;;;;;5062407;28;20221;-82
2022/05/24 11:43:00;;;;;;;14.07;4.97;;;31.90;49.30;;;;;;5080523;28;20668;-82
2022/05/24 11:45:34;;;;;;;10.13;4.97;;;31.70;49.40;;;;;;5078421;28;20571;-82
2022/05/24 11:48:08;;;;;;;17.70;5.20;;;31.60;49.20;;;;;;5063114;28;20308;-83
2022/05/24 11:50:41;;;;;;;10.63;4.70;;;31.50;50.60;;;;;;5062962;28;20213;-82
2022/05/24 11:53:11;;;;;;;9.87;4.40;;;31.50;50.40;;;;;;5063662;28;20206;-81
2022/05/24 11:55:43;;;;;;;10.63;5.17;;;31.40;50.10;;;;;;5078635;28;20201;-81
2022/05/24 11:58:23;;;;;;;7.67;4.60;;;31.30;49.30;;;;;;5077886;28;20210;-83
2022/05/24 12:01:31;;;;;;;11.93;4.63;;;31.20;50.50;;;;;;5022583;28;20206;-82
2022/05/24 12:11:00;;;;;;;8.80;4.63;;;30.90;50.70;;;;;;5078680;28;20205;-83
2022/05/24 12:13:40;;;;;;;8.90;5.00;;;30.80;52.00;;;;;;5036684;28;20587;-82
2022/05/24 12:16:31;;;;;;;10.47;4.80;;;30.80;52.00;;;;;;5078723;28;20198;-82
2022/05/24 12:19:10;;;;;;;11.03;5.20;;;30.80;53.00;;;;;;5075533;28;20206;-83
2022/05/24 12:21:59;;;;;;;8.67;4.77;;;30.80;52.80;;;;;;5078481;28;20205;-82
2022/05/24 12:24:34;;;;;;;6.90;4.57;;;30.80;52.10;;;;;;5060785;28;20225;-82
2022/05/24 12:27:16;;;;;;;11.07;4.77;;;30.90;52.10;;;;;;5077078;28;20227;-82
2022/05/24 12:29:48;;;;;;;10.80;5.33;;;31.00;50.70;;;;;;5077891;28;20541;-82
2022/05/24 12:32:20;;;;;;;6.67;4.70;;;31.00;50.20;;;;;;5076972;28;20213;-83
2022/05/24 12:34:49;;;;;;;11.90;4.87;;;31.00;50.50;;;;;;5062679;28;20213;-82
2022/05/24 12:37:31;;;;;;;8.93;4.67;;;31.10;51.40;;;;;;5074418;28;20198;-82
2022/05/24 12:40:18;;;;;;;9.70;4.47;;;31.20;50.90;;;;;;5068095;28;20217;-82
2022/05/24 12:43:10;;;;;;;10.97;4.67;;;31.20;52.00;;;;;;5067025;28;20194;-82
2022/05/24 12:45:41;;;;;;;10.00;5.10;;;31.30;51.00;;;;;;5060212;28;20656;-83
2022/05/24 12:48:24;;;;;;;9.97;4.67;;;31.30;51.20;;;;;;5094555;28;20223;-81
2022/05/24 12:51:07;;;;;;;9.90;4.70;;;31.30;51.90;;;;;;5077700;28;20221;-81
2022/05/24 12:53:36;;;;;;;8.93;4.70;;;31.30;50.20;;;;;;5063536;28;20249;-82
2022/05/24 12:56:16;;;;;;;8.20;5.70;;;31.40;51.60;;;;;;5078609;28;20232;-82
2022/05/24 12:58:47;;;;;;;10.93;4.60;;;31.40;52.00;;;;;;5057344;28;20216;-82
2022/05/24 13:01:23;;;;;;;10.77;4.93;;;31.60;51.70;;;;;;5077832;28;20213;-83
2022/05/24 13:03:53;;;;;;;7.83;5.03;;;31.70;50.60;;;;;;5077906;28;20284;-83
2022/05/24 13:06:39;;;;;;;12.80;4.83;;;31.80;50.50;;;;;;5062384;28;20205;-84
2022/05/24 13:09:13;;;;;;;10.57;4.87;;;31.90;51.50;;;;;;5077840;28;20555;-82
2022/05/24 13:11:50;;;;;;;11.57;5.60;;;31.80;51.60;;;;;;5074416;28;20206;-82
2022/05/24 13:15:00;;;;;;;10.77;4.70;;;32.00;51.40;;;;;;5077684;28;20222;-82
2022/05/24 13:17:39;;;;;;;11.90;5.00;;;32.10;50.30;;;;;;5052028;28;20206;-82
2022/05/24 13:20:25;;;;;;;7.80;4.33;;;32.40;50.60;;;;;;5061950;28;20216;-83
2022/05/24 13:22:56;;;;;;;9.13;4.87;;;32.50;50.00;;;;;;5065670;28;20300;-83
2022/05/24 13:25:42;;;;;;;6.20;4.63;;;32.60;49.90;;;;;;5093534;28;20555;-82
2022/05/24 13:28:10;;;;;;;11.07;4.73;;;32.60;49.60;;;;;;5076626;28;20571;-84
2022/05/24 13:33:47;;;;;;;10.60;4.47;;;32.60;47.20;;;;;;5077289;28;20282;-84
2022/05/24 13:36:21;;;;;;;11.07;4.37;;;32.60;47.70;;;;;;5052859;28;20209;-82
2022/05/24 13:39:05;;;;;;;10.50;4.73;;;32.60;48.10;;;;;;5056811;28;20217;-82
2022/05/24 13:41:40;;;;;;;10.03;4.63;;;32.60;47.30;;;;;;5053703;28;20573;-83
2022/05/24 13:44:59;;;;;;;7.83;4.03;;;32.40;47.60;;;;;;5027772;28;20644;-84
2022/05/24 13:47:33;;;;;;;13.07;4.73;;;32.20;49.00;;;;;;5071047;28;20213;-83
2022/05/24 13:50:21;;;;;;;9.83;4.93;;;32.00;49.40;;;;;;5060326;28;20235;-84
2022/05/24 13:52:55;;;;;;;10.80;4.60;;;31.80;48.70;;;;;;5079549;28;20201;-83
2022/05/24 13:55:32;;;;;;;12.37;5.23;;;31.60;50.10;;;;;;5082236;28;20245;-83
2022/05/24 13:58:08;;;;;;;12.30;4.43;;;31.40;50.00;;;;;;5064979;28;20221;-82
2022/05/24 14:00:51;;;;;;;7.87;4.33;;;31.30;50.20;;;;;;5081884;28;20213;-84
2022/05/24 14:03:44;;;;;;;7.20;4.67;;;31.40;50.60;;;;;;5074488;28;20312;-83
2022/05/24 14:06:20;;;;;;;11.67;4.77;;;31.50;50.00;;;;;;5065151;28;20252;-84